createdAt,value
2023-03-31T00:02:07.406Z,9.42
2023-03-31T00:04:35.147Z,9.50
2023-03-31T00:07:06.048Z,9.46
2023-03-31T00:09:33.576Z,9.45
2023-03-31T00:12:01.167Z,9.43
2023-03-31T00:14:28.768Z,9.57
2023-03-31T00:16:56.769Z,9.42
2023-03-31T00:19:24.564Z,9.38
2023-03-31T00:21:52.141Z,9.41
2023-03-31T00:24:21.238Z,9.43
2023-03-31T00:26:48.882Z,9.54
2023-03-31T00:29:16.525Z,9.62
2023-03-31T00:31:44.103Z,9.73
2023-03-31T00:34:11.710Z,9.46
2023-03-31T00:36:45.932Z,9.66
2023-03-31T00:39:13.778Z,9.61
2023-03-31T00:41:43.693Z,9.57
2023-03-31T00:44:13.465Z,9.65
2023-03-31T00:46:45.507Z,9.65
2023-03-31T00:49:20.795Z,9.64
2023-03-31T00:51:48.751Z,9.57
2023-03-31T00:54:16.366Z,9.50
2023-03-31T00:56:45.603Z,9.59
2023-03-31T00:59:13.240Z,9.44
2023-03-31T01:01:43.047Z,9.31
2023-03-31T01:04:10.851Z,9.24
2023-03-31T01:06:42.295Z,9.37
2023-03-31T01:09:10.014Z,9.51
2023-03-31T01:11:37.530Z,9.49
2023-03-31T01:14:06.439Z,9.58
2023-03-31T01:16:34.380Z,9.42
2023-03-31T01:19:03.174Z,9.32
2023-03-31T01:21:49.291Z,9.37
2023-03-31T01:24:35.824Z,9.12
2023-03-31T01:27:07.937Z,9.17
2023-03-31T01:29:44.720Z,9.19
2023-03-31T01:32:21.163Z,9.25
2023-03-31T01:35:06.575Z,9.26
2023-03-31T01:37:52.613Z,9.20
2023-03-31T01:40:32.842Z,9.25
2023-03-31T01:43:00.956Z,9.39
2023-03-31T01:45:31.122Z,9.49
2023-03-31T01:47:59.236Z,9.44
2023-03-31T01:50:29.265Z,9.45
2023-03-31T01:52:58.214Z,9.22
2023-03-31T01:55:26.392Z,9.48
2023-03-31T01:57:58.462Z,9.39
2023-03-31T02:00:26.792Z,9.47
2023-03-31T02:02:55.721Z,9.30
2023-03-31T02:05:25.782Z,9.40
2023-03-31T02:07:54.052Z,9.34
2023-03-31T02:10:22.194Z,9.51
2023-03-31T02:12:49.729Z,9.52
2023-03-31T02:15:20.406Z,9.40
2023-03-31T02:17:47.994Z,9.32
2023-03-31T02:20:16.271Z,9.47
2023-03-31T02:22:45.644Z,9.41
2023-03-31T02:25:16.212Z,9.51
2023-03-31T02:27:44.462Z,9.50
2023-03-31T02:30:12.678Z,9.50
2023-03-31T02:32:41.826Z,9.44
2023-03-31T02:35:10.663Z,9.41
2023-03-31T02:37:38.255Z,9.50
2023-03-31T02:40:10.522Z,9.57
2023-03-31T02:42:38.301Z,9.50
2023-03-31T02:45:07.054Z,9.48
2023-03-31T02:47:35.087Z,9.47
2023-03-31T02:50:05.785Z,9.36
2023-03-31T02:52:36.482Z,9.41
2023-03-31T02:55:16.827Z,9.42
2023-03-31T02:57:57.493Z,9.55
2023-03-31T03:00:27.514Z,9.48
2023-03-31T03:02:59.767Z,9.49
2023-03-31T03:05:34.806Z,9.40
2023-03-31T03:08:24.111Z,9.49
2023-03-31T03:10:54.666Z,9.49
2023-03-31T03:13:22.884Z,9.62
2023-03-31T03:15:50.857Z,9.64
2023-03-31T03:18:18.391Z,9.51
2023-03-31T03:20:49.173Z,9.49
2023-03-31T03:23:16.838Z,9.58
2023-03-31T03:25:44.422Z,9.62
2023-03-31T03:28:11.978Z,9.55
2023-03-31T03:30:39.614Z,9.48
2023-03-31T03:33:07.251Z,9.46
2023-03-31T03:35:35.031Z,9.57
2023-03-31T03:38:04.039Z,9.41
2023-03-31T03:40:31.550Z,9.26
2023-03-31T03:42:59.077Z,9.28
2023-03-31T03:45:26.610Z,9.27
2023-03-31T03:47:54.221Z,9.25
2023-03-31T03:50:21.810Z,9.31
2023-03-31T03:52:49.381Z,9.17
2023-03-31T03:55:18.788Z,9.25
2023-03-31T03:57:46.315Z,9.29
2023-03-31T04:00:14.189Z,9.34
2023-03-31T04:02:44.065Z,9.36
2023-03-31T04:05:11.710Z,9.22
2023-03-31T04:07:39.255Z,9.18
2023-03-31T04:10:07.384Z,9.15
2023-03-31T04:12:36.508Z,9.14
2023-03-31T04:15:04.177Z,9.31
2023-03-31T04:17:34.791Z,9.29
2023-03-31T04:20:03.899Z,9.46
2023-03-31T04:22:35.309Z,9.32
2023-03-31T04:25:03.498Z,9.43
2023-03-31T04:27:31.084Z,9.35
2023-03-31T04:29:59.963Z,9.36
2023-03-31T04:32:28.425Z,9.39
2023-03-31T04:35:03.064Z,9.31
2023-03-31T04:37:35.973Z,9.27
2023-03-31T04:40:09.622Z,9.27
2023-03-31T04:42:37.259Z,9.36
2023-03-31T04:45:06.544Z,9.38
2023-03-31T04:47:34.188Z,9.61
2023-03-31T04:50:01.854Z,9.69
2023-03-31T04:52:29.557Z,9.72
2023-03-31T04:54:57.333Z,9.54
2023-03-31T04:57:25.003Z,9.76
2023-03-31T04:59:52.582Z,9.40
2023-03-31T05:02:25.046Z,9.50
2023-03-31T05:04:53.266Z,9.53
2023-03-31T05:07:21.088Z,9.71
2023-03-31T05:09:48.635Z,9.60
2023-03-31T05:12:16.217Z,9.53
2023-03-31T05:14:43.714Z,9.61
2023-03-31T05:17:11.350Z,9.62
2023-03-31T05:19:40.346Z,9.71
2023-03-31T05:22:07.853Z,9.57
2023-03-31T05:24:35.516Z,9.74
2023-03-31T05:27:03.145Z,9.76
2023-03-31T05:29:31.251Z,9.83
2023-03-31T05:31:58.843Z,9.93
2023-03-31T05:34:26.377Z,9.87
2023-03-31T05:36:55.485Z,9.79
2023-03-31T05:39:23.064Z,10.00
2023-03-31T05:41:50.569Z,9.89
2023-03-31T05:44:20.691Z,9.71
2023-03-31T05:46:48.283Z,9.95
2023-03-31T05:49:17.057Z,9.85
2023-03-31T05:51:44.573Z,10.14
2023-03-31T05:54:13.583Z,10.27
2023-03-31T05:56:41.149Z,10.48
2023-03-31T05:59:08.746Z,10.63
2023-03-31T06:01:36.324Z,10.17
2023-03-31T06:04:03.958Z,10.09
2023-03-31T06:06:33.666Z,10.17
2023-03-31T06:09:02.286Z,10.05
2023-03-31T06:11:31.313Z,10.16
2023-03-31T06:13:58.831Z,10.19
2023-03-31T06:16:26.411Z,10.34
2023-03-31T06:18:55.797Z,10.23
2023-03-31T06:21:23.357Z,10.26
2023-03-31T06:23:55.095Z,10.16
2023-03-31T06:26:23.566Z,10.32
2023-03-31T06:28:52.471Z,10.40
2023-03-31T06:31:20.740Z,10.24
2023-03-31T06:33:48.414Z,10.25
2023-03-31T06:36:16.761Z,10.25
2023-03-31T06:38:44.394Z,10.35
2023-03-31T06:41:13.234Z,10.36
2023-03-31T06:43:41.087Z,10.41
2023-03-31T06:46:10.183Z,10.35
2023-03-31T06:48:38.061Z,10.37
2023-03-31T06:51:06.284Z,10.43
2023-03-31T06:53:34.173Z,10.51
2023-03-31T06:56:01.751Z,10.35
2023-03-31T06:58:31.374Z,10.46
2023-03-31T07:00:59.423Z,10.45
2023-03-31T07:03:29.610Z,10.54
2023-03-31T07:05:57.313Z,10.67
2023-03-31T07:08:24.988Z,10.83
2023-03-31T07:10:54.940Z,10.83
2023-03-31T07:13:22.677Z,10.79
2023-03-31T07:15:50.772Z,10.80
2023-03-31T07:18:19.214Z,10.75
2023-03-31T07:20:50.489Z,10.74
2023-03-31T07:23:18.182Z,10.71
2023-03-31T07:25:45.955Z,10.78
2023-03-31T07:28:13.499Z,10.68
2023-03-31T07:30:41.103Z,10.76
2023-03-31T07:33:08.761Z,10.74
2023-03-31T07:35:38.601Z,10.74
2023-03-31T07:38:07.966Z,10.59
2023-03-31T07:40:35.484Z,10.45
2023-03-31T07:43:03.362Z,10.42
2023-03-31T07:45:31.098Z,10.46
2023-03-31T07:47:59.011Z,10.46
2023-03-31T07:50:26.550Z,10.42
2023-03-31T07:52:56.380Z,10.41
2023-03-31T07:55:26.712Z,10.36
2023-03-31T07:57:54.277Z,10.38
2023-03-31T08:00:22.179Z,10.35
2023-03-31T08:02:50.164Z,10.34
2023-03-31T08:05:18.130Z,10.34
2023-03-31T08:07:46.613Z,10.27
2023-03-31T08:10:14.758Z,10.15
2023-03-31T08:12:43.803Z,10.23
2023-03-31T08:15:11.511Z,10.16
2023-03-31T08:17:39.117Z,10.10
2023-03-31T08:20:09.506Z,10.13
2023-03-31T08:22:37.384Z,10.11
2023-03-31T08:25:05.187Z,10.21
2023-03-31T08:27:34.006Z,10.26
2023-03-31T08:30:04.536Z,10.21
2023-03-31T08:32:32.709Z,10.30
2023-03-31T08:35:00.305Z,10.10
2023-03-31T08:37:28.273Z,10.21
2023-03-31T08:39:55.828Z,10.17
2023-03-31T08:42:25.649Z,10.24
2023-03-31T08:44:55.723Z,10.22
2023-03-31T08:47:24.916Z,10.41
2023-03-31T08:49:53.144Z,10.42
2023-03-31T08:52:21.769Z,10.47
2023-03-31T08:54:50.432Z,10.49
2023-03-31T08:57:20.066Z,10.43
2023-03-31T08:59:47.804Z,10.36
2023-03-31T09:02:18.948Z,10.25
2023-03-31T09:04:51.796Z,10.27
2023-03-31T09:07:21.451Z,10.21
2023-03-31T09:09:50.538Z,10.09
2023-03-31T09:12:19.542Z,10.14
2023-03-31T09:14:47.298Z,9.92
2023-03-31T09:17:17.507Z,10.01
2023-03-31T09:19:48.710Z,10.25
2023-03-31T09:22:18.792Z,10.29
2023-03-31T09:24:48.557Z,10.22
2023-03-31T09:27:16.242Z,10.16
2023-03-31T09:29:44.374Z,10.23
2023-03-31T09:32:15.176Z,10.18
2023-03-31T09:34:44.925Z,10.23
2023-03-31T09:37:12.630Z,10.22
2023-03-31T09:39:42.764Z,10.28
2023-03-31T09:42:11.339Z,10.50
2023-03-31T09:44:39.384Z,10.29
2023-03-31T09:47:10.453Z,10.28
2023-03-31T09:49:39.078Z,10.39
2023-03-31T09:52:07.341Z,10.39
2023-03-31T09:54:38.477Z,10.45
2023-03-31T09:57:15.064Z,10.37
2023-03-31T09:59:44.146Z,10.31
2023-03-31T10:02:22.156Z,10.16
2023-03-31T10:04:49.877Z,10.25
2023-03-31T10:07:20.828Z,10.10
2023-03-31T10:09:48.317Z,10.10
2023-03-31T10:12:20.229Z,10.19
2023-03-31T10:14:48.318Z,10.14
2023-03-31T10:17:16.030Z,10.01
2023-03-31T10:19:48.144Z,9.98
2023-03-31T10:22:16.443Z,9.85
2023-03-31T10:24:44.288Z,9.62
2023-03-31T10:27:17.038Z,9.56
2023-03-31T10:29:47.277Z,9.44
2023-03-31T10:32:18.380Z,9.55
2023-03-31T10:34:45.930Z,9.48
2023-03-31T10:37:13.827Z,9.40
2023-03-31T10:39:41.555Z,9.40
2023-03-31T10:42:09.142Z,9.51
2023-03-31T10:44:37.836Z,9.66
2023-03-31T10:47:07.799Z,9.69
2023-03-31T10:49:38.495Z,9.91
2023-03-31T10:52:10.333Z,9.55
2023-03-31T10:54:38.936Z,9.58
2023-03-31T10:57:07.045Z,9.75
2023-03-31T10:59:38.128Z,9.58
2023-03-31T11:02:18.147Z,10.00
2023-03-31T11:04:46.477Z,9.67
2023-03-31T11:07:16.641Z,9.97
2023-03-31T11:09:46.820Z,10.15
2023-03-31T11:12:17.370Z,10.14
2023-03-31T11:14:47.902Z,10.20
2023-03-31T11:17:21.150Z,10.18
2023-03-31T11:19:50.885Z,10.54
2023-03-31T11:22:21.242Z,10.34
2023-03-31T11:28:40.902Z,9.87
2023-03-31T11:31:12.750Z,9.87
2023-03-31T11:33:44.616Z,9.86
2023-03-31T11:36:26.119Z,10.13
2023-03-31T11:39:00.179Z,9.97
2023-03-31T11:41:29.957Z,9.95
2023-03-31T11:43:57.692Z,9.90
2023-03-31T11:46:26.477Z,9.93
2023-03-31T11:48:58.112Z,9.95
2023-03-31T11:51:26.442Z,9.96
2023-03-31T11:53:54.333Z,9.99
2023-03-31T11:56:22.724Z,9.96
2023-03-31T11:58:50.813Z,9.98
2023-03-31T12:01:19.190Z,10.02
2023-03-31T12:03:48.919Z,10.20
2023-03-31T12:06:19.376Z,10.19
2023-03-31T12:08:48.645Z,10.46
2023-03-31T12:11:16.370Z,10.56
2023-03-31T12:13:46.200Z,10.68
2023-03-31T12:16:14.334Z,10.87
2023-03-31T12:18:43.142Z,11.01
2023-03-31T12:21:10.713Z,11.05
2023-03-31T12:23:41.716Z,11.01
2023-03-31T12:26:12.075Z,11.12
2023-03-31T12:28:42.110Z,10.92
2023-03-31T12:31:11.054Z,10.99
2023-03-31T12:33:39.200Z,11.17
2023-03-31T12:36:13.552Z,11.20
2023-03-31T12:38:49.991Z,11.24
2023-03-31T12:41:19.156Z,11.08
2023-03-31T12:43:51.532Z,10.91
2023-03-31T12:46:23.151Z,10.75
2023-03-31T12:48:55.385Z,10.81
2023-03-31T12:51:39.918Z,10.82
2023-03-31T12:54:15.059Z,11.02
2023-03-31T12:57:01.589Z,10.73
2023-03-31T12:59:30.771Z,10.08
2023-03-31T13:02:13.129Z,10.22
2023-03-31T13:04:40.739Z,10.41
2023-03-31T13:07:17.509Z,10.78
2023-03-31T13:09:56.932Z,10.79
2023-03-31T13:12:28.146Z,10.88
2023-03-31T13:14:59.167Z,11.18
2023-03-31T13:17:30.751Z,11.66
2023-03-31T13:19:58.818Z,11.74
2023-03-31T13:22:30.465Z,11.97
2023-03-31T13:25:12.951Z,12.44
2023-03-31T13:27:46.442Z,12.53
2023-03-31T13:30:28.876Z,12.37
2023-03-31T13:33:03.741Z,12.18
2023-03-31T13:35:31.327Z,12.04
2023-03-31T13:38:02.110Z,12.25
2023-03-31T13:40:44.325Z,12.25
2023-03-31T13:43:19.776Z,12.09
2023-03-31T13:45:56.411Z,12.19
2023-03-31T13:48:42.791Z,12.44
2023-03-31T13:51:16.654Z,12.31
2023-03-31T13:53:50.851Z,12.20
2023-03-31T13:56:24.975Z,12.41
2023-03-31T13:59:10.409Z,12.95
2023-03-31T14:01:43.179Z,12.97
2023-03-31T14:04:15.552Z,12.91
2023-03-31T14:06:45.353Z,12.94
2023-03-31T14:09:13.201Z,12.74
2023-03-31T14:11:40.853Z,12.72
2023-03-31T14:14:11.313Z,12.33
2023-03-31T14:20:34.902Z,12.24
2023-03-31T14:23:06.451Z,12.06
2023-03-31T14:25:37.545Z,12.38
2023-03-31T14:28:08.581Z,12.55
2023-03-31T14:30:39.218Z,12.36
2023-03-31T14:33:10.623Z,12.46
2023-03-31T14:35:42.932Z,12.55
2023-03-31T14:38:11.612Z,12.56
2023-03-31T14:40:43.872Z,12.33
2023-03-31T14:43:12.109Z,12.17
2023-03-31T14:45:39.616Z,11.93
2023-03-31T14:48:11.595Z,11.72
2023-03-31T14:50:43.008Z,11.64
2023-03-31T14:53:18.455Z,11.65
2023-03-31T14:55:59.070Z,11.66
2023-03-31T14:58:27.598Z,11.69
2023-03-31T15:00:55.111Z,11.57
2023-03-31T15:03:23.662Z,11.35
2023-03-31T15:05:52.798Z,11.30
2023-03-31T15:08:22.563Z,11.32
2023-03-31T15:10:54.088Z,11.43
2023-03-31T15:13:28.138Z,11.40
2023-03-31T15:15:55.702Z,11.54
2023-03-31T15:18:23.293Z,11.46
2023-03-31T15:20:52.457Z,11.60
2023-03-31T15:23:25.051Z,11.69
2023-03-31T15:25:53.643Z,11.61
2023-03-31T15:28:22.423Z,11.69
2023-03-31T15:30:56.842Z,11.69
2023-03-31T15:33:32.737Z,11.82
2023-03-31T15:36:02.248Z,11.66
2023-03-31T15:38:31.939Z,11.59
2023-03-31T15:40:59.502Z,11.49
2023-03-31T15:43:33.198Z,11.47
2023-03-31T15:46:01.039Z,11.47
2023-03-31T15:48:30.219Z,11.48
2023-03-31T15:51:02.688Z,11.49
2023-03-31T15:53:33.706Z,11.46
2023-03-31T15:56:02.070Z,11.51
2023-03-31T15:58:49.519Z,11.66
2023-03-31T16:01:21.413Z,11.64
2023-03-31T16:03:50.751Z,11.61
2023-03-31T16:06:22.596Z,11.68
2023-03-31T16:08:53.172Z,11.72
2023-03-31T16:11:23.083Z,11.70
2023-03-31T16:13:55.379Z,11.39
2023-03-31T16:16:24.780Z,11.25
2023-03-31T16:18:58.865Z,11.21
2023-03-31T16:21:28.741Z,11.16
2023-03-31T16:23:57.261Z,11.19
2023-03-31T16:26:26.203Z,11.07
2023-03-31T16:28:54.274Z,11.00
2023-03-31T16:31:34.811Z,11.08
2023-03-31T16:34:02.552Z,10.86
2023-03-31T16:36:33.538Z,10.67
2023-03-31T16:39:04.877Z,10.70
2023-03-31T16:41:32.765Z,10.58
2023-03-31T16:44:00.612Z,10.46
2023-03-31T16:46:28.483Z,10.52
2023-03-31T16:48:56.337Z,10.53
2023-03-31T16:51:24.084Z,10.49
2023-03-31T16:53:53.187Z,10.42
2023-03-31T16:56:21.277Z,10.12
2023-03-31T16:58:49.186Z,10.00
2023-03-31T17:01:17.488Z,10.15
2023-03-31T17:03:45.414Z,10.10
2023-03-31T17:06:13.380Z,9.94
2023-03-31T17:08:40.955Z,9.77
2023-03-31T17:11:11.792Z,9.89
2023-03-31T17:13:39.599Z,10.06
2023-03-31T17:16:16.533Z,9.84
2023-03-31T17:18:49.484Z,9.81
2023-03-31T17:21:18.377Z,9.86
2023-03-31T17:23:46.575Z,10.01
2023-03-31T17:26:15.686Z,9.72
2023-03-31T17:28:43.453Z,9.77
2023-03-31T17:31:14.161Z,9.91
2023-03-31T17:33:42.053Z,9.78
2023-03-31T17:36:09.733Z,9.72
2023-03-31T17:38:38.511Z,9.65
2023-03-31T17:41:06.271Z,9.52
2023-03-31T17:43:35.762Z,9.64
2023-03-31T17:46:04.412Z,9.67
2023-03-31T17:48:34.109Z,9.60
2023-03-31T17:51:04.590Z,9.68
2023-03-31T17:53:32.293Z,9.75
2023-03-31T17:55:59.857Z,9.68
2023-03-31T17:58:27.384Z,9.77
2023-03-31T18:00:57.269Z,9.69
2023-03-31T18:03:29.535Z,9.55
2023-03-31T18:05:58.022Z,9.26
2023-03-31T18:08:25.928Z,9.27
2023-03-31T18:10:53.601Z,9.26
2023-03-31T18:13:21.736Z,9.27
2023-03-31T18:15:51.489Z,9.25
2023-03-31T18:18:20.693Z,9.24
2023-03-31T18:20:48.298Z,9.24
2023-03-31T18:23:16.189Z,9.30
2023-03-31T18:25:45.240Z,9.42
2023-03-31T18:28:13.043Z,9.32
2023-03-31T18:30:40.595Z,9.67
2023-03-31T18:33:08.268Z,9.43
2023-03-31T18:35:37.972Z,9.48
2023-03-31T18:38:05.828Z,9.56
2023-03-31T18:40:33.621Z,9.36
2023-03-31T18:43:01.211Z,9.40
2023-03-31T18:45:30.691Z,9.66
2023-03-31T18:47:58.442Z,9.36
2023-03-31T18:50:26.199Z,9.43
2023-03-31T18:52:55.294Z,9.37
2023-03-31T18:55:23.343Z,9.32
2023-03-31T18:57:51.344Z,9.33
2023-03-31T19:00:20.539Z,9.42
2023-03-31T19:02:48.356Z,9.40
2023-03-31T19:05:16.213Z,9.37
2023-03-31T19:07:43.819Z,9.24
2023-03-31T19:10:13.212Z,9.35
2023-03-31T19:12:40.909Z,9.40
2023-03-31T19:15:09.272Z,9.51
2023-03-31T19:17:38.124Z,9.55
2023-03-31T19:20:06.661Z,9.42
2023-03-31T19:22:34.305Z,9.27
2023-03-31T19:25:01.916Z,9.28
2023-03-31T19:27:30.958Z,9.35
2023-03-31T19:29:58.726Z,9.33
2023-03-31T19:32:26.431Z,9.27
2023-03-31T19:34:54.551Z,9.47
2023-03-31T19:37:22.185Z,9.47
2023-03-31T19:39:49.775Z,9.28
2023-03-31T19:42:17.439Z,9.30
2023-03-31T19:44:46.500Z,9.18
2023-03-31T19:47:14.133Z,9.20
2023-03-31T19:49:41.741Z,9.34
2023-03-31T19:52:09.439Z,9.29
2023-03-31T19:54:37.136Z,9.37
2023-03-31T19:57:05.087Z,9.46
2023-03-31T19:59:32.697Z,9.33
2023-03-31T20:05:29.971Z,9.25
2023-03-31T20:07:57.905Z,9.32
2023-03-31T20:10:25.757Z,9.24
2023-03-31T20:13:12.982Z,9.40
2023-03-31T20:15:58.623Z,9.47
2023-03-31T20:18:27.557Z,9.27
2023-03-31T20:21:04.423Z,9.25
2023-03-31T20:23:32.172Z,9.31
2023-03-31T20:26:01.020Z,9.37
2023-03-31T20:28:28.761Z,9.31
2023-03-31T20:30:56.909Z,9.05
2023-03-31T20:33:24.638Z,8.96
2023-03-31T20:36:00.079Z,8.95
2023-03-31T20:38:29.749Z,8.97
2023-03-31T20:40:57.804Z,8.90
2023-03-31T20:43:25.882Z,8.97
2023-03-31T20:45:54.177Z,8.89
2023-03-31T20:48:21.923Z,8.97
2023-03-31T20:50:51.578Z,8.98
2023-03-31T20:53:19.241Z,8.90
2023-03-31T20:55:48.091Z,8.89
2023-03-31T20:58:15.705Z,9.05
2023-03-31T21:00:43.279Z,9.07
2023-03-31T21:03:11.413Z,9.02
2023-03-31T21:05:42.452Z,8.94
2023-03-31T21:08:10.037Z,8.76
2023-03-31T21:10:40.385Z,8.61
2023-03-31T21:13:09.372Z,8.82
2023-03-31T21:15:36.963Z,8.75
2023-03-31T21:18:04.685Z,8.90
2023-03-31T21:20:32.807Z,8.63
2023-03-31T21:23:01.546Z,8.78
2023-03-31T21:25:29.498Z,8.62
2023-03-31T21:27:57.316Z,8.76
2023-03-31T21:30:26.708Z,8.75
2023-03-31T21:32:54.335Z,8.53
2023-03-31T21:35:22.470Z,8.20
2023-03-31T21:37:50.073Z,8.48
2023-03-31T21:40:17.748Z,8.52
2023-03-31T21:42:45.316Z,8.50
2023-03-31T21:45:13.488Z,8.34
2023-03-31T21:47:42.493Z,8.36
2023-03-31T21:50:10.765Z,8.40
2023-03-31T21:52:38.347Z,8.35
2023-03-31T21:55:06.244Z,8.31
2023-03-31T21:57:33.832Z,8.19
2023-03-31T22:00:01.413Z,8.26
2023-03-31T22:02:29.495Z,8.34
2023-03-31T22:04:58.514Z,8.34
2023-03-31T22:07:26.456Z,8.38
2023-03-31T22:09:54.034Z,8.36
2023-03-31T22:12:21.676Z,8.23
2023-03-31T22:14:49.275Z,8.32
2023-03-31T22:17:16.879Z,8.18
2023-03-31T22:19:44.645Z,8.17
2023-03-31T22:22:13.583Z,8.25
2023-03-31T22:24:41.489Z,8.26
2023-03-31T22:27:09.099Z,8.22
2023-03-31T22:29:36.660Z,8.27
2023-03-31T22:32:04.365Z,8.25
2023-03-31T22:34:32.033Z,8.39
2023-03-31T22:36:59.653Z,8.40
2023-03-31T22:39:28.728Z,8.29
2023-03-31T22:41:56.276Z,8.30
2023-03-31T22:44:23.986Z,8.32
2023-03-31T22:46:51.638Z,8.42
2023-03-31T22:49:19.249Z,8.26
2023-03-31T22:51:47.519Z,8.33
2023-03-31T22:54:15.210Z,8.26
2023-03-31T22:56:44.342Z,8.25
2023-03-31T22:59:12.088Z,8.23
2023-03-31T23:01:39.591Z,8.25
2023-03-31T23:04:07.239Z,8.35
2023-03-31T23:06:36.141Z,8.37
2023-03-31T23:09:03.871Z,8.32
2023-03-31T23:11:31.469Z,8.26
2023-03-31T23:14:00.387Z,8.28
2023-03-31T23:16:28.140Z,8.44
2023-03-31T23:18:56.061Z,8.33
2023-03-31T23:21:24.200Z,8.39
2023-03-31T23:23:53.621Z,8.41
2023-03-31T23:26:21.218Z,8.41
2023-03-31T23:28:49.627Z,8.44
2023-03-31T23:31:18.778Z,8.47
2023-03-31T23:33:47.321Z,8.28
2023-03-31T23:36:17.656Z,8.37
2023-03-31T23:38:45.339Z,8.48
2023-03-31T23:41:12.982Z,8.47
2023-03-31T23:43:40.843Z,8.57
2023-03-31T23:46:08.603Z,8.44
2023-03-31T23:48:37.633Z,8.44
2023-03-31T23:51:05.638Z,8.45
2023-03-31T23:53:33.256Z,8.51
2023-03-31T23:56:02.754Z,8.54
2023-03-31T23:58:30.536Z,8.67
